createdAt,value
2023-01-01T00:00:50.868Z,13.25
2023-01-01T00:01:50.751Z,13.21
2023-01-01T00:02:50.718Z,13.22
2023-01-01T00:03:50.762Z,13.22
2023-01-01T00:04:50.711Z,13.27
2023-01-01T00:05:50.686Z,13.30
2023-01-01T00:06:50.665Z,13.30
2023-01-01T00:07:50.646Z,13.29
2023-01-01T00:08:50.648Z,13.25
2023-01-01T00:09:50.623Z,13.24
2023-01-01T00:10:50.637Z,13.18
2023-01-01T00:11:50.595Z,13.14
2023-01-01T00:12:50.576Z,13.11
2023-01-01T00:13:50.603Z,13.04
2023-01-01T00:14:50.560Z,13.00
2023-01-01T00:15:50.549Z,13.00
2023-01-01T00:16:50.637Z,12.96
2023-01-01T00:17:50.549Z,12.95
2023-01-01T00:18:59.200Z,12.88
2023-01-01T00:19:50.485Z,12.87
2023-01-01T00:20:50.492Z,12.82
2023-01-01T00:21:50.467Z,12.77
2023-01-01T00:22:55.419Z,12.74
2023-01-01T00:23:51.460Z,12.69
2023-01-01T00:24:50.510Z,12.63
2023-01-01T00:25:50.406Z,12.57
2023-01-01T00:26:50.427Z,12.54
2023-01-01T00:27:50.397Z,12.49
2023-01-01T00:28:50.410Z,12.44
2023-01-01T00:29:50.380Z,12.39
2023-01-01T00:30:50.356Z,12.37
2023-01-01T00:31:50.352Z,12.37
2023-01-01T00:32:54.864Z,12.37
2023-01-01T00:33:51.327Z,12.34
2023-01-01T00:34:50.363Z,12.38
2023-01-01T00:35:50.297Z,12.41
2023-01-01T00:36:50.273Z,12.42
2023-01-01T00:37:50.264Z,12.42
2023-01-01T00:38:50.265Z,12.39
2023-01-01T00:39:50.252Z,12.34
2023-01-01T00:40:50.226Z,12.30
2023-01-01T00:41:50.215Z,12.26
2023-01-01T00:42:50.218Z,12.21
2023-01-01T00:43:50.193Z,12.16
2023-01-01T00:44:50.207Z,12.12
2023-01-01T00:45:50.198Z,12.11
2023-01-01T00:46:50.134Z,12.08
2023-01-01T00:47:50.125Z,12.09
2023-01-01T00:48:50.139Z,12.11
2023-01-01T00:49:50.176Z,12.11
2023-01-01T00:50:50.089Z,12.24
2023-01-01T00:51:50.080Z,12.27
2023-01-01T00:52:50.110Z,12.29
2023-01-01T00:53:50.108Z,12.29
2023-01-01T00:54:50.049Z,12.31
2023-01-01T00:55:50.027Z,12.34
2023-01-01T00:56:50.007Z,12.41
2023-01-01T00:57:50.009Z,12.44
2023-01-01T00:59:01.668Z,12.45
2023-01-01T00:59:50.968Z,12.54
2023-01-01T01:00:50.023Z,12.57
2023-01-01T01:01:50.032Z,12.59
2023-01-01T01:02:49.963Z,12.57
2023-01-01T01:03:49.926Z,12.59
2023-01-01T01:04:49.909Z,12.62
2023-01-01T01:05:49.898Z,12.64
2023-01-01T01:06:49.878Z,12.64
2023-01-01T01:07:49.872Z,12.63
2023-01-01T01:08:49.889Z,12.63
2023-01-01T01:09:49.858Z,12.63
2023-01-01T01:10:49.819Z,12.62
2023-01-01T01:11:49.808Z,12.62
2023-01-01T01:12:49.814Z,12.60
2023-01-01T01:13:49.806Z,12.57
2023-01-01T01:14:49.806Z,12.57
2023-01-01T01:15:56.092Z,12.54
2023-01-01T01:16:50.766Z,12.49
2023-01-01T01:17:49.736Z,12.49
2023-01-01T01:18:49.729Z,12.49
2023-01-01T01:19:49.723Z,12.46
2023-01-01T01:20:49.711Z,12.42
2023-01-01T01:21:49.680Z,12.41
2023-01-01T01:22:49.689Z,12.38
2023-01-01T01:23:49.661Z,12.34
2023-01-01T01:24:49.654Z,12.30
2023-01-01T01:25:49.651Z,12.27
2023-01-01T01:26:49.628Z,12.23
2023-01-01T01:27:49.605Z,12.19
2023-01-01T01:28:50.287Z,12.12
2023-01-01T01:29:49.591Z,12.06
2023-01-01T01:30:49.605Z,12.02
2023-01-01T01:31:49.558Z,11.97
2023-01-01T01:32:49.532Z,11.93
2023-01-01T01:33:49.536Z,11.87
2023-01-01T01:34:49.548Z,11.87
2023-01-01T01:35:49.491Z,11.86
2023-01-01T01:36:49.491Z,11.90
2023-01-01T01:37:49.473Z,11.94
2023-01-01T01:38:49.474Z,12.05
2023-01-01T01:39:53.795Z,12.15
2023-01-01T01:40:49.433Z,12.27
2023-01-01T01:41:49.413Z,12.31
2023-01-01T01:42:49.439Z,12.34
2023-01-01T01:43:49.396Z,12.34
2023-01-01T01:44:49.388Z,12.33
2023-01-01T01:45:49.389Z,12.37
2023-01-01T01:46:49.354Z,12.41
2023-01-01T01:47:49.342Z,12.45
2023-01-01T01:48:49.324Z,12.45
2023-01-01T01:49:49.334Z,12.45
2023-01-01T01:50:49.292Z,12.44
2023-01-01T01:51:49.315Z,12.44
2023-01-01T01:52:49.285Z,12.41
2023-01-01T01:53:49.277Z,12.41
2023-01-01T01:54:49.256Z,12.37
2023-01-01T01:55:49.235Z,12.37
2023-01-01T01:56:49.240Z,12.38
2023-01-01T01:57:49.204Z,12.41
2023-01-01T01:58:49.203Z,12.39
2023-01-01T01:59:49.204Z,12.38
2023-01-01T02:00:49.194Z,12.38
2023-01-01T02:01:49.273Z,12.42
2023-01-01T02:02:49.307Z,12.44
2023-01-01T02:03:49.166Z,12.42
2023-01-01T02:04:49.182Z,12.41
2023-01-01T02:05:49.110Z,12.39
2023-01-01T02:06:49.089Z,12.37
2023-01-01T02:07:49.089Z,12.37
2023-01-01T02:08:49.085Z,12.41
2023-01-01T02:09:49.068Z,12.41
2023-01-01T02:10:49.037Z,12.42
2023-01-01T02:11:49.162Z,12.41
2023-01-01T02:12:49.019Z,12.41
2023-01-01T02:13:49.007Z,12.39
2023-01-01T02:14:49.004Z,12.39
2023-01-01T02:15:48.990Z,12.38
2023-01-01T02:16:48.976Z,12.38
2023-01-01T02:17:48.950Z,12.38
2023-01-01T02:18:48.936Z,12.39
2023-01-01T02:19:48.924Z,12.41
2023-01-01T02:20:48.929Z,12.37
2023-01-01T02:21:48.889Z,12.33
2023-01-01T02:22:48.900Z,12.31
2023-01-01T02:23:48.869Z,12.30
2023-01-01T02:24:48.868Z,12.27
2023-01-01T02:25:48.843Z,12.26
2023-01-01T02:26:48.861Z,12.23
2023-01-01T02:27:48.814Z,12.31
2023-01-01T02:28:48.819Z,12.31
2023-01-01T02:29:48.803Z,12.34
2023-01-01T02:30:48.881Z,12.34
2023-01-01T02:31:48.763Z,12.38
2023-01-01T02:32:48.749Z,12.45
2023-01-01T02:33:48.730Z,12.49
2023-01-01T02:34:48.730Z,12.59
2023-01-01T02:35:48.725Z,12.64
2023-01-01T02:36:48.715Z,12.78
2023-01-01T02:37:48.681Z,12.82
2023-01-01T02:38:48.671Z,12.87
2023-01-01T02:39:48.671Z,12.89
2023-01-01T02:40:48.640Z,12.89
2023-01-01T02:41:48.620Z,12.92
2023-01-01T02:42:48.639Z,12.93
2023-01-01T02:43:48.602Z,12.89
2023-01-01T02:44:48.626Z,12.88
2023-01-01T02:45:48.619Z,12.88
2023-01-01T02:46:48.563Z,12.93
2023-01-01T02:47:48.563Z,12.96
2023-01-01T02:48:48.554Z,12.99
2023-01-01T02:49:48.525Z,13.00
2023-01-01T02:50:48.516Z,13.03
2023-01-01T02:51:48.492Z,13.11
2023-01-01T02:52:48.495Z,13.14
2023-01-01T02:53:48.477Z,13.14
2023-01-01T02:54:48.455Z,13.15
2023-01-01T02:55:48.462Z,13.14
2023-01-01T02:56:48.445Z,13.18
2023-01-01T02:57:48.417Z,13.24
2023-01-01T02:58:48.415Z,13.25
2023-01-01T02:59:48.382Z,13.24
2023-01-01T03:00:48.387Z,13.18
2023-01-01T03:01:48.454Z,13.17
2023-01-01T03:02:51.061Z,13.17
2023-01-01T03:03:48.371Z,13.20
2023-01-01T03:04:48.330Z,13.20
2023-01-01T03:05:48.328Z,13.21
2023-01-01T03:06:48.317Z,13.27
2023-01-01T03:07:48.297Z,13.38
2023-01-01T03:08:48.283Z,13.46
2023-01-01T03:09:48.254Z,13.52
2023-01-01T03:10:48.258Z,13.55
2023-01-01T03:11:48.247Z,13.56
2023-01-01T03:12:48.220Z,13.58
2023-01-01T03:13:48.208Z,13.58
2023-01-01T03:14:48.208Z,13.61
2023-01-01T03:15:48.237Z,13.59
2023-01-01T03:16:48.181Z,13.58
2023-01-01T03:17:48.147Z,13.52
2023-01-01T03:18:48.151Z,13.46
2023-01-01T03:19:48.127Z,13.40
2023-01-01T03:20:48.139Z,13.37
2023-01-01T03:21:48.112Z,13.36
2023-01-01T03:23:18.408Z,13.43
2023-01-01T03:24:18.371Z,13.41
2023-01-01T03:25:18.364Z,13.36
2023-01-01T03:26:18.367Z,13.30
2023-01-01T03:27:18.344Z,13.27
2023-01-01T03:28:18.367Z,13.25
2023-01-01T03:29:18.314Z,13.20
2023-01-01T03:30:18.347Z,13.15
2023-01-01T03:31:18.316Z,13.11
2023-01-01T03:32:18.281Z,13.06
2023-01-01T03:33:18.263Z,13.00
2023-01-01T03:34:18.274Z,12.93
2023-01-01T03:35:18.241Z,12.85
2023-01-01T03:36:18.237Z,12.84
2023-01-01T03:37:18.217Z,12.79
2023-01-01T03:38:18.193Z,12.75
2023-01-01T03:39:18.191Z,12.75
2023-01-01T03:40:18.185Z,12.71
2023-01-01T03:41:18.155Z,12.71
2023-01-01T03:42:18.149Z,12.71
2023-01-01T03:43:18.133Z,12.69
2023-01-01T03:44:18.115Z,12.66
2023-01-01T03:45:18.116Z,12.64
2023-01-01T03:46:18.113Z,12.62
2023-01-01T03:47:18.077Z,12.59
2023-01-01T03:48:18.081Z,12.56
2023-01-01T03:49:18.061Z,12.56
2023-01-01T04:02:57.084Z,12.20
2023-01-01T04:03:57.004Z,12.23
2023-01-01T04:04:56.985Z,12.20
2023-01-01T04:05:56.985Z,12.21
2023-01-01T04:06:56.966Z,12.20
2023-01-01T04:07:56.977Z,12.16
2023-01-01T04:08:56.947Z,12.13
2023-01-01T04:09:56.935Z,12.09
2023-01-01T04:10:56.925Z,12.06
2023-01-01T04:11:56.901Z,12.05
2023-01-01T04:12:56.899Z,12.04
2023-01-01T04:13:56.889Z,12.02
2023-01-01T04:14:56.875Z,11.99
2023-01-01T04:15:56.868Z,11.99
2023-01-01T04:16:56.834Z,12.01
2023-01-01T04:17:56.851Z,12.04
2023-01-01T04:18:56.817Z,12.12
2023-01-01T04:19:56.822Z,12.19
2023-01-01T04:20:56.807Z,12.24
2023-01-01T04:21:56.785Z,12.27
2023-01-01T04:22:56.795Z,12.30
2023-01-01T04:23:56.757Z,12.37
2023-01-01T04:24:56.761Z,12.46
2023-01-01T04:25:56.738Z,12.54
2023-01-01T04:26:56.719Z,12.62
2023-01-01T04:27:56.709Z,12.63
2023-01-01T04:28:56.689Z,12.66
2023-01-01T04:29:56.669Z,12.67
2023-01-01T04:31:26.981Z,12.77
2023-01-01T04:32:26.970Z,12.78
2023-01-01T04:33:26.945Z,12.77
2023-01-01T04:34:26.929Z,12.81
2023-01-01T04:35:26.942Z,12.79
2023-01-01T04:36:26.913Z,12.78
2023-01-01T04:37:26.900Z,12.78
2023-01-01T04:38:26.881Z,12.77
2023-01-01T04:39:26.861Z,12.70
2023-01-01T04:40:26.892Z,12.64
2023-01-01T04:41:26.856Z,12.62
2023-01-01T04:42:26.842Z,12.60
2023-01-01T04:43:26.825Z,12.60
2023-01-01T04:44:26.804Z,12.57
2023-01-01T04:45:26.896Z,12.51
2023-01-01T04:46:26.789Z,12.49
2023-01-01T04:47:26.754Z,12.49
2023-01-01T04:48:26.755Z,12.48
2023-01-01T04:49:26.764Z,12.44
2023-01-01T04:50:26.749Z,12.38
2023-01-01T04:51:26.725Z,12.38
2023-01-01T04:52:26.722Z,12.37
2023-01-01T04:53:26.683Z,12.34
2023-01-01T04:54:26.678Z,12.30
2023-01-01T04:55:26.667Z,12.29
2023-01-01T04:56:26.680Z,12.27
2023-01-01T04:57:26.643Z,12.26
2023-01-01T04:58:26.624Z,12.23
2023-01-01T04:59:26.613Z,12.21
2023-01-01T05:00:26.606Z,12.20
2023-01-01T05:01:26.714Z,12.13
2023-01-01T05:02:26.855Z,12.11
2023-01-01T05:03:26.558Z,12.08
2023-01-01T05:04:26.549Z,12.04
2023-01-01T05:05:26.534Z,11.99
2023-01-01T05:06:26.587Z,11.94
2023-01-01T05:07:26.519Z,11.87
2023-01-01T05:08:26.493Z,11.83
2023-01-01T05:09:26.491Z,11.78
2023-01-01T05:10:26.485Z,11.74
2023-01-01T05:11:26.486Z,11.70
2023-01-01T05:12:26.453Z,11.65
2023-01-01T05:13:26.439Z,11.62
2023-01-01T05:14:26.417Z,11.57
2023-01-01T05:15:26.397Z,11.54
2023-01-01T05:16:26.413Z,11.53
2023-01-01T05:17:26.377Z,11.54
2023-01-01T05:18:26.366Z,11.54
2023-01-01T05:19:26.357Z,11.57
2023-01-01T05:20:26.331Z,11.62
2023-01-01T05:21:26.327Z,11.68
2023-01-01T05:22:26.326Z,11.72
2023-01-01T05:23:26.298Z,11.72
2023-01-01T05:24:26.287Z,11.72
2023-01-01T05:25:26.267Z,11.71
2023-01-01T05:26:26.257Z,11.70
2023-01-01T05:27:26.242Z,11.71
2023-01-01T05:28:26.228Z,11.82
2023-01-01T05:29:26.207Z,11.90
2023-01-01T05:30:26.199Z,11.94
2023-01-01T05:31:26.223Z,12.01
2023-01-01T05:32:26.178Z,12.01
2023-01-01T05:33:26.163Z,12.11
2023-01-01T05:34:26.161Z,12.23
2023-01-01T05:35:26.726Z,12.26
2023-01-01T05:36:26.131Z,12.29
2023-01-01T05:37:26.107Z,12.30
2023-01-01T05:38:26.100Z,12.29
2023-01-01T05:39:26.104Z,12.29
2023-01-01T05:40:26.061Z,12.27
2023-01-01T05:41:26.069Z,12.23
2023-01-01T05:42:26.045Z,12.24
2023-01-01T05:43:26.019Z,12.24
2023-01-01T05:44:26.041Z,12.31
2023-01-01T05:45:26.007Z,12.34
2023-01-01T05:46:26.027Z,12.41
2023-01-01T05:47:29.638Z,12.42
2023-01-01T05:48:25.974Z,12.44
2023-01-01T05:49:25.960Z,12.41
2023-01-01T05:50:25.932Z,12.37
2023-01-01T05:51:25.938Z,12.37
2023-01-01T05:52:26.916Z,12.37
2023-01-01T05:53:25.912Z,12.39
2023-01-01T05:54:25.893Z,12.38
2023-01-01T05:55:25.869Z,12.39
2023-01-01T05:56:25.866Z,12.38
2023-01-01T05:57:25.854Z,12.38
2023-01-01T05:58:25.844Z,12.49
2023-01-01T05:59:25.826Z,12.49
2023-01-01T06:00:25.805Z,12.51
2023-01-01T06:01:25.834Z,12.46
2023-01-01T06:02:25.839Z,12.45
2023-01-01T06:03:25.765Z,12.49
2023-01-01T06:04:25.796Z,12.46
2023-01-01T06:05:25.743Z,12.46
2023-01-01T06:06:25.746Z,12.57
2023-01-01T06:07:25.743Z,12.60
2023-01-01T06:08:25.713Z,12.59
2023-01-01T06:09:25.689Z,12.52
2023-01-01T06:10:25.681Z,12.48
2023-01-01T06:11:25.701Z,12.45
2023-01-01T06:12:25.674Z,12.39
2023-01-01T06:13:25.639Z,12.34
2023-01-01T06:14:25.649Z,12.30
2023-01-01T06:15:25.621Z,12.23
2023-01-01T06:16:25.682Z,12.19
2023-01-01T06:17:25.597Z,12.13
2023-01-01T06:18:25.565Z,12.09
2023-01-01T06:19:25.546Z,12.08
2023-01-01T06:20:25.570Z,12.05
2023-01-01T06:21:25.534Z,12.05
2023-01-01T06:22:25.515Z,12.06
2023-01-01T06:23:25.520Z,12.08
2023-01-01T06:24:25.507Z,12.06
2023-01-01T06:25:25.486Z,12.05
2023-01-01T06:26:25.511Z,12.04
2023-01-01T06:27:25.474Z,12.01
2023-01-01T06:28:25.440Z,12.04
2023-01-01T06:29:25.449Z,12.04
2023-01-01T06:30:25.426Z,12.05
2023-01-01T06:31:25.406Z,12.08
2023-01-01T06:32:25.388Z,12.08
2023-01-01T06:33:25.392Z,12.06
2023-01-01T06:34:25.359Z,12.06
2023-01-01T06:35:25.347Z,12.06
2023-01-01T06:36:25.345Z,12.06
2023-01-01T06:37:25.337Z,12.06
2023-01-01T06:38:25.330Z,12.05
2023-01-01T06:39:25.291Z,12.01
2023-01-01T06:40:25.288Z,11.99
2023-01-01T06:41:25.267Z,11.97
2023-01-01T06:42:30.398Z,11.96
2023-01-01T06:43:26.230Z,11.94
2023-01-01T06:44:25.251Z,11.87
2023-01-01T06:45:25.218Z,11.86
2023-01-01T06:46:25.296Z,11.82
2023-01-01T06:47:25.215Z,11.80
2023-01-01T06:48:25.189Z,11.77
2023-01-01T06:49:25.173Z,11.75
2023-01-01T06:50:25.159Z,11.71
2023-01-01T06:51:25.154Z,11.71
2023-01-01T06:52:25.199Z,11.68
2023-01-01T06:53:25.122Z,11.67
2023-01-01T06:54:25.102Z,11.62
2023-01-01T06:55:25.082Z,11.59
2023-01-01T06:56:25.106Z,11.56
2023-01-01T06:57:25.070Z,11.53
2023-01-01T06:58:25.070Z,11.53
2023-01-01T06:59:25.040Z,11.53
2023-01-01T07:00:25.014Z,11.53
2023-01-01T07:01:25.091Z,11.53
2023-01-01T07:02:25.148Z,11.50
2023-01-01T07:03:24.998Z,11.49
2023-01-01T07:04:24.983Z,11.43
2023-01-01T07:05:24.946Z,11.41
2023-01-01T07:06:24.962Z,11.39
2023-01-01T07:07:24.932Z,11.35
2023-01-01T07:08:24.915Z,11.35
2023-01-01T07:09:24.901Z,11.35
2023-01-01T07:10:24.892Z,11.34
2023-01-01T07:11:24.866Z,11.34
2023-01-01T07:12:24.871Z,11.28
2023-01-01T07:13:24.852Z,11.28
2023-01-01T07:14:24.833Z,11.27
2023-01-01T07:15:24.825Z,11.25
2023-01-01T07:16:24.972Z,11.24
2023-01-01T07:17:24.825Z,11.21
2023-01-01T07:18:24.809Z,11.25
2023-01-01T07:19:24.823Z,11.27
2023-01-01T07:20:24.774Z,11.29
2023-01-01T07:21:28.791Z,11.35
2023-01-01T07:22:25.764Z,11.39
2023-01-01T07:23:24.721Z,11.43
2023-01-01T07:24:24.693Z,11.43
2023-01-01T07:25:24.681Z,11.43
2023-01-01T07:26:24.697Z,11.44
2023-01-01T07:27:24.666Z,11.44
2023-01-01T07:28:24.667Z,11.41
2023-01-01T07:29:24.643Z,11.43
2023-01-01T07:30:24.641Z,11.41
2023-01-01T07:31:24.676Z,11.43
2023-01-01T07:32:24.596Z,11.43
2023-01-01T07:33:24.607Z,11.43
2023-01-01T07:34:24.557Z,11.44
2023-01-01T07:35:24.563Z,11.44
2023-01-01T07:36:24.581Z,11.46
2023-01-01T07:37:24.533Z,11.47
2023-01-01T07:38:24.527Z,11.47
2023-01-01T07:39:24.513Z,11.49
2023-01-01T07:40:24.486Z,11.53
2023-01-01T07:41:24.502Z,11.57
2023-01-01T07:42:24.467Z,11.61
2023-01-01T07:43:24.476Z,11.62
2023-01-01T07:44:24.452Z,11.64
2023-01-01T07:45:24.432Z,11.67
2023-01-01T07:46:24.530Z,11.70
2023-01-01T07:47:24.445Z,11.71
2023-01-01T07:48:24.399Z,11.71
2023-01-01T07:49:24.388Z,11.72
2023-01-01T07:50:24.390Z,11.71
2023-01-01T07:51:24.362Z,11.71
2023-01-01T07:52:24.348Z,11.71
2023-01-01T07:53:24.347Z,11.72
2023-01-01T07:54:24.309Z,11.72
2023-01-01T07:55:24.302Z,11.75
2023-01-01T07:56:24.279Z,11.77
2023-01-01T07:57:24.277Z,11.78
2023-01-01T07:58:24.259Z,11.80
2023-01-01T07:59:24.249Z,11.86
2023-01-01T08:00:24.237Z,11.90
2023-01-01T08:01:24.271Z,11.94
2023-01-01T08:02:24.309Z,11.99
2023-01-01T08:03:24.265Z,12.04
2023-01-01T08:04:24.181Z,12.05
2023-01-01T08:05:26.835Z,12.08
2023-01-01T08:06:24.162Z,12.09
2023-01-01T08:07:24.140Z,12.12
2023-01-01T08:08:24.169Z,12.16
2023-01-01T08:09:24.129Z,12.19
2023-01-01T08:10:24.120Z,12.23
2023-01-01T08:11:24.102Z,12.24
2023-01-01T08:12:24.089Z,12.30
2023-01-01T08:13:24.081Z,12.31
2023-01-01T08:14:24.065Z,12.38
2023-01-01T08:15:24.043Z,12.42
2023-01-01T08:16:24.098Z,12.45
2023-01-01T08:17:24.018Z,12.46
2023-01-01T08:18:24.013Z,12.52
2023-01-01T08:19:23.984Z,12.57
2023-01-01T08:20:23.963Z,12.60
2023-01-01T08:21:23.956Z,12.67
2023-01-01T08:22:23.964Z,12.74
2023-01-01T08:23:23.957Z,12.79
2023-01-01T08:24:23.913Z,12.84
2023-01-01T08:25:23.911Z,12.88
2023-01-01T08:26:23.887Z,12.96
2023-01-01T08:27:23.887Z,12.99
2023-01-01T08:28:23.872Z,13.03
2023-01-01T08:29:23.928Z,13.06
2023-01-01T08:30:23.830Z,13.09
2023-01-01T08:31:23.922Z,13.15
2023-01-01T08:32:23.804Z,13.20
2023-01-01T08:33:23.835Z,13.24
2023-01-01T08:34:23.785Z,13.27
2023-01-01T08:35:23.777Z,13.32
2023-01-01T08:36:23.757Z,13.36
2023-01-01T08:37:23.744Z,13.38
2023-01-01T08:38:23.766Z,13.44
2023-01-01T08:39:23.716Z,13.51
2023-01-01T08:40:23.709Z,13.54
2023-01-01T08:41:23.695Z,13.56
2023-01-01T08:42:23.690Z,13.61
2023-01-01T08:43:23.683Z,13.62
2023-01-01T08:44:23.647Z,13.69
2023-01-01T08:45:23.645Z,13.70
2023-01-01T08:46:23.625Z,13.73
2023-01-01T08:47:23.626Z,13.76
2023-01-01T08:48:30.379Z,13.77
2023-01-01T08:49:24.617Z,13.84
2023-01-01T08:50:23.570Z,13.88
2023-01-01T08:51:23.559Z,13.89
2023-01-01T08:52:23.566Z,13.94
2023-01-01T08:53:23.547Z,14.01
2023-01-01T08:54:23.518Z,14.01
2023-01-01T08:55:23.517Z,14.01
2023-01-01T08:56:23.491Z,14.07
2023-01-01T08:57:23.480Z,14.09
2023-01-01T08:58:24.063Z,14.17
2023-01-01T08:59:23.459Z,14.19
2023-01-01T09:00:23.444Z,14.24
2023-01-01T09:01:23.536Z,14.20
2023-01-01T09:02:23.553Z,14.21
2023-01-01T09:03:23.582Z,14.21
2023-01-01T09:04:23.410Z,14.20
2023-01-01T09:05:23.368Z,14.20
2023-01-01T09:06:23.367Z,14.17
2023-01-01T09:07:23.387Z,14.16
2023-01-01T09:08:23.329Z,14.13
2023-01-01T09:09:29.264Z,14.10
2023-01-01T09:10:24.322Z,14.09
2023-01-01T09:11:23.309Z,14.12
2023-01-01T09:12:23.273Z,14.13
2023-01-01T09:13:23.269Z,14.16
2023-01-01T09:14:23.281Z,14.13
2023-01-01T09:15:23.243Z,14.12
2023-01-01T09:16:23.358Z,14.07
2023-01-01T09:17:23.230Z,14.06
2023-01-01T09:18:23.207Z,14.06
2023-01-01T09:19:23.204Z,14.02
2023-01-01T09:20:23.181Z,14.07
2023-01-01T09:21:23.176Z,14.02
2023-01-01T09:22:23.161Z,14.02
2023-01-01T09:23:23.156Z,14.06
2023-01-01T09:24:23.159Z,14.10
2023-01-01T09:25:23.127Z,14.10
2023-01-01T09:26:23.107Z,14.13
2023-01-01T09:27:23.096Z,14.16
2023-01-01T09:28:25.871Z,14.16
2023-01-01T09:29:23.074Z,14.17
2023-01-01T09:30:23.066Z,14.19
2023-01-01T09:31:23.083Z,14.19
2023-01-01T09:32:23.018Z,14.27
2023-01-01T09:33:23.023Z,14.31
2023-01-01T09:34:23.005Z,14.35
2023-01-01T09:35:22.974Z,14.47
2023-01-01T09:36:22.972Z,14.47
2023-01-01T09:37:22.965Z,14.50
2023-01-01T09:38:22.940Z,14.54
2023-01-01T09:39:22.948Z,14.65
2023-01-01T09:40:22.911Z,14.80
2023-01-01T09:41:22.914Z,14.88
2023-01-01T09:42:22.891Z,14.95
2023-01-01T09:43:22.903Z,15.11
2023-01-01T09:44:22.876Z,15.20
2023-01-01T09:45:22.878Z,15.23
2023-01-01T09:46:27.925Z,15.19
2023-01-01T10:03:17.836Z,16.53
2023-01-01T10:04:17.909Z,16.53
2023-01-01T10:05:17.816Z,16.71
2023-01-01T10:06:17.796Z,16.71
2023-01-01T10:07:17.813Z,16.80
2023-01-01T10:08:22.950Z,16.93
2023-01-01T10:09:18.758Z,16.92
2023-01-01T10:10:17.760Z,17.06
2023-01-01T10:11:17.727Z,17.13
2023-01-01T10:12:17.713Z,16.99
2023-01-01T10:13:17.721Z,16.83
2023-01-01T10:14:17.698Z,16.74
2023-01-01T10:15:17.682Z,16.63
2023-01-01T10:16:23.921Z,16.53
2023-01-01T10:17:18.645Z,16.60
2023-01-01T10:18:17.641Z,16.59
2023-01-01T10:19:17.656Z,16.44
2023-01-01T10:20:17.621Z,16.34
2023-01-01T10:21:17.596Z,16.38
2023-01-01T10:22:17.580Z,16.41
2023-01-01T10:23:17.560Z,16.33
2023-01-01T10:24:17.595Z,16.22
2023-01-01T10:25:17.549Z,16.12
2023-01-01T10:26:17.524Z,16.12
2023-01-01T10:27:17.509Z,16.16
2023-01-01T10:28:17.501Z,16.12
2023-01-01T10:29:17.523Z,16.07
2023-01-01T10:30:17.496Z,16.11
2023-01-01T10:31:17.474Z,16.15
2023-01-01T10:32:17.455Z,16.18
2023-01-01T10:33:17.436Z,16.16
2023-01-01T10:34:17.468Z,16.03
2023-01-01T10:35:17.414Z,15.99
2023-01-01T10:36:17.395Z,16.04
2023-01-01T10:37:17.383Z,16.03
2023-01-01T10:38:17.395Z,16.07
2023-01-01T10:39:17.382Z,16.04
2023-01-01T10:40:17.356Z,15.94
2023-01-01T10:41:19.831Z,15.86
2023-01-01T10:42:17.323Z,15.81
2023-01-01T10:43:17.303Z,15.82
2023-01-01T10:44:17.299Z,15.85
2023-01-01T10:45:17.284Z,15.85
2023-01-01T10:46:17.317Z,15.82
2023-01-01T10:47:17.255Z,15.81
2023-01-01T10:48:17.242Z,15.82
2023-01-01T10:49:17.226Z,15.86
2023-01-01T10:50:17.245Z,15.88
2023-01-01T10:51:17.187Z,15.92
2023-01-01T10:52:17.215Z,15.92
2023-01-01T10:53:17.167Z,15.96
2023-01-01T10:54:17.167Z,15.99
2023-01-01T10:55:17.168Z,16.03
2023-01-01T10:56:17.139Z,16.09
2023-01-01T10:57:17.132Z,16.16
2023-01-01T10:58:17.111Z,16.12
2023-01-01T10:59:17.093Z,16.11
2023-01-01T11:00:17.093Z,16.04
2023-01-01T11:01:17.192Z,16.03
2023-01-01T11:02:17.277Z,16.07
2023-01-01T11:03:17.071Z,16.14
2023-01-01T11:04:17.027Z,16.18
2023-01-01T11:05:21.549Z,16.23
2023-01-01T11:06:18.008Z,16.22
2023-01-01T11:07:16.986Z,16.22
2023-01-01T11:08:16.982Z,16.25
2023-01-01T11:09:16.959Z,16.12
2023-01-01T11:10:16.974Z,16.09
2023-01-01T11:11:16.941Z,16.11
2023-01-01T11:12:45.928Z,16.14
2023-01-01T11:13:17.913Z,16.15
2023-01-01T11:14:16.893Z,16.18
2023-01-01T11:15:16.894Z,16.18
2023-01-01T11:16:16.933Z,16.15
2023-01-01T11:17:16.854Z,16.16
2023-01-01T11:18:16.841Z,16.18
2023-01-01T11:19:16.832Z,16.16
2023-01-01T11:20:16.832Z,16.03
2023-01-01T11:21:16.808Z,16.04
2023-01-01T11:22:16.791Z,16.07
2023-01-01T11:23:16.787Z,16.06
2023-01-01T11:24:16.763Z,16.04
2023-01-01T11:25:16.757Z,16.06
2023-01-01T11:26:16.775Z,16.07
2023-01-01T11:27:16.735Z,16.07
2023-01-01T11:28:16.704Z,16.11
2023-01-01T11:29:16.709Z,16.07
2023-01-01T11:30:16.704Z,16.11
2023-01-01T11:31:16.686Z,16.15
2023-01-01T11:32:16.661Z,16.25
2023-01-01T11:33:16.636Z,16.34
2023-01-01T11:34:16.635Z,16.38
2023-01-01T11:35:16.630Z,16.50
2023-01-01T11:36:16.602Z,16.52
2023-01-01T11:37:16.588Z,16.53
2023-01-01T11:38:16.586Z,16.58
2023-01-01T11:39:16.566Z,16.65
2023-01-01T11:40:16.565Z,16.65
2023-01-01T11:41:16.538Z,16.63
2023-01-01T11:42:16.541Z,16.71
2023-01-01T11:43:16.498Z,16.75
2023-01-01T11:44:16.510Z,16.75
2023-01-01T11:45:16.496Z,16.70
2023-01-01T11:46:16.534Z,16.70
2023-01-01T11:47:16.447Z,16.62
2023-01-01T11:48:16.451Z,16.58
2023-01-01T11:49:16.458Z,16.50
2023-01-01T11:50:16.473Z,16.44
2023-01-01T11:51:16.408Z,16.48
2023-01-01T11:52:16.416Z,16.52
2023-01-01T11:53:16.402Z,16.56
2023-01-01T11:54:16.370Z,16.60
2023-01-01T11:55:16.368Z,16.63
2023-01-01T11:56:16.339Z,16.65
2023-01-01T11:57:16.324Z,16.68
2023-01-01T11:58:19.758Z,16.70
2023-01-01T11:59:16.299Z,16.67
2023-01-01T12:00:16.314Z,16.70
2023-01-01T12:01:16.344Z,16.58
2023-01-01T12:02:16.345Z,16.55
2023-01-01T12:03:16.262Z,16.58
2023-01-01T12:04:16.309Z,16.63
2023-01-01T12:05:16.259Z,16.67
2023-01-01T12:06:16.244Z,16.65
2023-01-01T12:07:16.205Z,16.67
2023-01-01T12:08:16.193Z,16.60
2023-01-01T12:09:18.540Z,16.55
2023-01-01T12:10:16.150Z,16.59
2023-01-01T12:11:16.152Z,16.52
2023-01-01T12:12:16.131Z,16.55
2023-01-01T12:13:16.114Z,16.58
2023-01-01T12:14:16.106Z,16.58
2023-01-01T12:15:16.112Z,16.60
2023-01-01T12:16:16.117Z,16.58
2023-01-01T12:17:16.106Z,16.55
2023-01-01T12:18:16.102Z,16.50
2023-01-01T12:19:16.039Z,16.49
2023-01-01T12:20:16.044Z,16.49
2023-01-01T12:21:16.019Z,16.50
2023-01-01T12:22:16.006Z,16.60
2023-01-01T12:23:16.007Z,16.67
2023-01-01T12:24:15.974Z,16.73
2023-01-01T12:25:15.970Z,16.78
2023-01-01T12:26:15.951Z,16.83
2023-01-01T12:27:15.924Z,16.81
2023-01-01T12:28:15.926Z,16.83
2023-01-01T12:29:15.904Z,16.88
2023-01-01T12:30:15.918Z,16.90
2023-01-01T12:31:15.970Z,16.78
2023-01-01T12:32:15.867Z,16.73
2023-01-01T12:33:15.864Z,16.81
2023-01-01T12:34:15.843Z,16.85
2023-01-01T12:35:15.821Z,16.86
2023-01-01T12:36:15.827Z,16.83
2023-01-01T12:37:15.802Z,16.85
2023-01-01T12:38:15.794Z,16.86
2023-01-01T12:39:15.778Z,16.89
2023-01-01T12:40:19.714Z,16.90
2023-01-01T12:41:16.777Z,16.93
2023-01-01T12:42:15.727Z,16.96
2023-01-01T12:43:15.722Z,16.96
2023-01-01T12:44:15.705Z,16.99
2023-01-01T12:45:15.700Z,16.96
2023-01-01T12:46:15.712Z,16.98
2023-01-01T12:47:15.669Z,16.98
2023-01-01T12:48:15.654Z,16.98
2023-01-01T12:49:15.638Z,16.98
2023-01-01T12:50:15.691Z,16.99
2023-01-01T12:51:15.638Z,16.99
2023-01-01T12:52:15.623Z,17.04
2023-01-01T12:53:15.581Z,17.03
2023-01-01T12:54:15.570Z,17.03
2023-01-01T12:55:15.574Z,17.00
2023-01-01T12:56:22.573Z,17.06
2023-01-01T12:57:16.544Z,17.06
2023-01-01T12:58:15.538Z,16.96
2023-01-01T12:59:15.509Z,16.89
2023-01-01T13:00:15.567Z,16.75
2023-01-01T13:01:15.564Z,16.71
2023-01-01T13:02:15.555Z,16.67
2023-01-01T13:03:15.558Z,16.62
2023-01-01T13:04:15.473Z,16.55
2023-01-01T13:05:15.433Z,16.50
2023-01-01T13:06:17.606Z,16.50
2023-01-01T13:07:15.413Z,16.45
2023-01-01T13:08:15.390Z,16.44
2023-01-01T13:09:15.397Z,16.42
2023-01-01T13:10:15.380Z,16.40
2023-01-01T13:11:15.362Z,16.37
2023-01-01T13:12:15.334Z,16.30
2023-01-01T13:13:15.333Z,16.22
2023-01-01T13:14:15.316Z,16.14
2023-01-01T13:15:15.306Z,16.06
2023-01-01T13:16:15.350Z,16.04
2023-01-01T13:17:15.283Z,16.06
2023-01-01T13:18:15.267Z,16.01
2023-01-01T13:19:15.253Z,15.99
2023-01-01T13:20:15.238Z,16.00
2023-01-01T13:21:15.246Z,16.01
2023-01-01T13:22:15.213Z,16.03